Time;durP1;ratioP1;P1;durP2;ratioP2;P2;SDS_P1;SDS_P2;PMS_P1;PMS_P2;Temp;Humidity;BMP_temperature;BMP_pressure;BME280_temperature;BME280_humidity;BME280_pressure;Samples;Min_cycle;Max_cycle;Signal;HPM_P1;HPM_P2
2021/06/24 00:01:06;;;;;;;20.42;6.63;;;;;;;;;;5034792;28;20390;-72
2021/06/24 00:03:33;;;;;;;25.08;7.35;;;;;;;;;;5035461;28;20378;-72
2021/06/24 00:05:59;;;;;;;26.30;7.25;;;;;;;;;;5048397;28;20036;-71
2021/06/24 00:08:25;;;;;;;11.88;5.82;;;;;;;;;;5044754;28;20036;-71
2021/06/24 00:10:52;;;;;;;16.48;6.90;;;;;;;;;;5035113;28;20025;-71
2021/06/24 00:13:18;;;;;;;21.65;7.35;;;;;;;;;;5034683;28;20473;-71
2021/06/24 00:15:43;;;;;;;19.52;7.18;;;;;;;;;;5034435;28;20091;-74
2021/06/24 00:18:09;;;;;;;19.25;7.32;;;;;;;;;;5034783;28;20032;-71
2021/06/24 00:20:35;;;;;;;12.57;6.60;;;;;;;;;;5033283;28;20025;-71
2021/06/24 00:23:02;;;;;;;14.32;7.25;;;;;;;;;;5036052;28;20076;-72
2021/06/24 00:25:27;;;;;;;20.88;7.78;;;;;;;;;;5034613;28;20032;-72
2021/06/24 00:27:52;;;;;;;17.23;7.05;;;;;;;;;;5033637;28;20398;-71
2021/06/24 00:30:18;;;;;;;18.98;8.18;;;;;;;;;;5034582;28;20386;-72
2021/06/24 00:32:44;;;;;;;20.02;7.18;;;;;;;;;;5034342;28;20120;-72
2021/06/24 00:35:10;;;;;;;16.27;7.65;;;;;;;;;;5034537;28;20037;-72
2021/06/24 00:37:35;;;;;;;16.65;7.63;;;;;;;;;;5036403;28;20037;-71
2021/06/24 00:40:04;;;;;;;16.90;6.88;;;;;;;;;;5054821;28;20021;-71
2021/06/24 00:42:29;;;;;;;13.60;7.18;;;;;;;;;;5054490;28;20078;-72
2021/06/24 00:44:56;;;;;;;17.08;7.53;;;;;;;;;;5054506;28;20024;-71
2021/06/24 00:47:22;;;;;;;17.30;7.03;;;;;;;;;;5054446;28;20451;-71
2021/06/24 00:49:48;;;;;;;14.50;7.80;;;;;;;;;;5054472;28;20025;-72
2021/06/24 00:52:13;;;;;;;30.02;8.30;;;;;;;;;;5054617;28;20066;-71
2021/06/24 00:54:38;;;;;;;23.90;7.72;;;;;;;;;;5047430;28;20041;-71
2021/06/24 00:57:06;;;;;;;16.67;7.88;;;;;;;;;;5034477;28;20584;-71
2021/06/24 00:59:33;;;;;;;29.10;8.15;;;;;;;;;;5034187;28;20021;-72
2021/06/24 01:01:58;;;;;;;11.88;6.95;;;;;;;;;;5034232;28;20026;-71
2021/06/24 01:04:24;;;;;;;21.30;7.25;;;;;;;;;;5035804;28;20358;-72
2021/06/24 01:06:50;;;;;;;18.38;7.97;;;;;;;;;;5034265;28;20056;-71
2021/06/24 01:09:16;;;;;;;17.50;7.40;;;;;;;;;;5034535;28;20030;-72
2021/06/24 01:11:42;;;;;;;21.55;8.98;;;;;;;;;;5034679;28;20025;-72
2021/06/24 01:14:11;;;;;;;22.27;8.70;;;;;;;;;;5049213;28;20033;-72
2021/06/24 01:16:40;;;;;;;15.50;7.80;;;;;;;;;;5054390;28;20036;-72
2021/06/24 01:19:07;;;;;;;16.75;7.53;;;;;;;;;;5054563;28;20060;-72
2021/06/24 01:21:33;;;;;;;18.52;7.53;;;;;;;;;;5054546;28;20473;-72
2021/06/24 01:23:58;;;;;;;18.02;7.88;;;;;;;;;;5050289;28;20068;-71
2021/06/24 01:26:24;;;;;;;21.80;8.60;;;;;;;;;;5032311;28;20064;-72
2021/06/24 01:28:50;;;;;;;17.70;8.00;;;;;;;;;;5033727;28;20033;-71
2021/06/24 01:31:16;;;;;;;20.65;9.23;;;;;;;;;;5033801;28;20022;-71
2021/06/24 01:33:42;;;;;;;19.10;8.52;;;;;;;;;;5033558;28;20029;-72
2021/06/24 01:36:08;;;;;;;16.42;9.13;;;;;;;;;;5034533;28;20160;-71
2021/06/24 01:38:34;;;;;;;17.02;9.25;;;;;;;;;;5036002;28;20061;-71
2021/06/24 01:41:00;;;;;;;20.20;8.48;;;;;;;;;;5039179;28;20037;-71
2021/06/24 01:43:26;;;;;;;17.70;8.70;;;;;;;;;;5038922;28;20131;-72
2021/06/24 01:45:54;;;;;;;19.17;9.52;;;;;;;;;;5039096;28;20036;-72
2021/06/24 01:48:22;;;;;;;17.65;8.80;;;;;;;;;;5038259;28;20032;-73
2021/06/24 01:50:48;;;;;;;19.05;9.13;;;;;;;;;;5036608;28;20478;-72
2021/06/24 01:53:14;;;;;;;18.33;9.23;;;;;;;;;;5037404;28;20033;-72
2021/06/24 01:55:40;;;;;;;22.38;10.60;;;;;;;;;;5037619;28;20030;-72
2021/06/24 01:58:09;;;;;;;15.25;9.30;;;;;;;;;;5038736;28;20017;-72
2021/06/24 02:00:35;;;;;;;22.80;9.88;;;;;;;;;;5037404;28;20022;-72
2021/06/24 02:03:01;;;;;;;23.83;9.82;;;;;;;;;;5037546;28;20080;-72
2021/06/24 02:05:26;;;;;;;22.65;10.13;;;;;;;;;;5037082;28;20033;-72
2021/06/24 02:07:52;;;;;;;19.67;9.70;;;;;;;;;;5037245;28;20029;-71
2021/06/24 02:10:17;;;;;;;22.33;10.27;;;;;;;;;;5037518;28;20025;-71
2021/06/24 02:12:43;;;;;;;23.50;10.25;;;;;;;;;;5036697;28;20064;-71
2021/06/24 02:15:11;;;;;;;22.65;9.98;;;;;;;;;;5037838;28;20091;-72
2021/06/24 02:17:37;;;;;;;22.83;9.88;;;;;;;;;;5042733;28;20022;-72
2021/06/24 02:20:08;;;;;;;24.58;10.25;;;;;;;;;;5056987;28;20500;-72
2021/06/24 02:22:34;;;;;;;16.45;9.57;;;;;;;;;;5056994;28;20017;-71
2021/06/24 02:25:00;;;;;;;27.52;10.20;;;;;;;;;;5056385;28;20525;-72
2021/06/24 02:27:25;;;;;;;17.85;10.10;;;;;;;;;;5057160;28;20060;-71
2021/06/24 02:29:51;;;;;;;20.42;10.27;;;;;;;;;;5056319;28;20481;-72
2021/06/24 02:32:16;;;;;;;24.35;10.30;;;;;;;;;;5054913;28;20086;-72
2021/06/24 02:34:43;;;;;;;18.70;9.75;;;;;;;;;;5057053;28;20049;-72
2021/06/24 02:37:08;;;;;;;21.45;9.90;;;;;;;;;;5056803;28;20027;-71
2021/06/24 02:39:33;;;;;;;21.00;10.05;;;;;;;;;;5056141;28;20115;-72
2021/06/24 02:41:59;;;;;;;21.98;9.75;;;;;;;;;;5055937;28;20082;-74
2021/06/24 02:44:26;;;;;;;21.98;9.85;;;;;;;;;;5056628;28;20020;-72
2021/06/24 02:46:51;;;;;;;15.93;9.05;;;;;;;;;;5056555;28;20029;-72
2021/06/24 02:49:16;;;;;;;19.58;9.57;;;;;;;;;;5045037;28;20037;-72
2021/06/24 02:51:42;;;;;;;15.27;8.93;;;;;;;;;;5036114;28;20029;-72
2021/06/24 02:54:07;;;;;;;18.40;8.38;;;;;;;;;;5036047;28;20079;-72
2021/06/24 02:56:42;;;;;;;18.95;8.82;;;;;;;;;;5036077;28;20116;-72
2021/06/24 02:59:08;;;;;;;20.08;9.45;;;;;;;;;;5036654;28;20116;-72
2021/06/24 03:01:35;;;;;;;16.67;9.70;;;;;;;;;;5036038;28;20029;-71
2021/06/24 03:04:00;;;;;;;20.67;9.85;;;;;;;;;;5035933;28;20029;-72
2021/06/24 03:06:25;;;;;;;19.08;9.63;;;;;;;;;;5047162;28;20504;-72
2021/06/24 03:08:51;;;;;;;17.63;9.40;;;;;;;;;;5055304;28;20025;-72
2021/06/24 03:11:17;;;;;;;22.85;10.23;;;;;;;;;;5056166;28;20017;-73
2021/06/24 03:13:42;;;;;;;18.60;9.52;;;;;;;;;;5055682;28;20028;-72
2021/06/24 03:16:08;;;;;;;20.52;8.93;;;;;;;;;;5055498;28;20024;-71
2021/06/24 03:18:33;;;;;;;16.42;9.40;;;;;;;;;;5056291;28;20046;-72
2021/06/24 03:20:59;;;;;;;20.75;9.05;;;;;;;;;;5056252;28;20055;-71
2021/06/24 03:23:24;;;;;;;17.10;9.35;;;;;;;;;;5054074;28;20030;-73
2021/06/24 03:25:52;;;;;;;15.13;8.80;;;;;;;;;;5048898;28;20091;-71
2021/06/24 03:28:17;;;;;;;16.73;10.00;;;;;;;;;;5036092;28;20104;-71
2021/06/24 03:30:42;;;;;;;13.68;8.75;;;;;;;;;;5035923;28;20079;-73
2021/06/24 03:33:08;;;;;;;20.25;8.88;;;;;;;;;;5035127;28;20076;-72
2021/06/24 03:35:33;;;;;;;17.60;8.63;;;;;;;;;;5035421;28;20041;-71
2021/06/24 03:37:59;;;;;;;21.67;9.35;;;;;;;;;;5035673;28;20025;-73
2021/06/24 03:40:24;;;;;;;14.45;8.90;;;;;;;;;;5036453;28;20490;-72
2021/06/24 03:42:51;;;;;;;22.05;8.30;;;;;;;;;;5035558;28;20034;-72
2021/06/24 03:45:17;;;;;;;14.70;8.43;;;;;;;;;;5035756;28;20025;-71
2021/06/24 03:47:42;;;;;;;14.52;8.45;;;;;;;;;;5034689;28;20124;-72
2021/06/24 03:50:09;;;;;;;17.27;8.60;;;;;;;;;;5035100;28;20059;-72
2021/06/24 03:52:35;;;;;;;15.93;9.30;;;;;;;;;;5035019;28;20088;-72
2021/06/24 03:55:00;;;;;;;20.35;9.65;;;;;;;;;;5035281;28;20505;-71
2021/06/24 03:57:25;;;;;;;16.55;9.50;;;;;;;;;;5036751;28;20021;-72
2021/06/24 03:59:51;;;;;;;21.48;10.45;;;;;;;;;;5035539;28;20068;-73
2021/06/24 04:02:16;;;;;;;14.77;8.70;;;;;;;;;;5034646;28;20108;-72
2021/06/24 04:04:41;;;;;;;17.63;9.15;;;;;;;;;;5036359;28;20047;-72
2021/06/24 04:07:06;;;;;;;15.40;8.93;;;;;;;;;;5036252;28;20371;-71
2021/06/24 04:09:32;;;;;;;16.85;9.07;;;;;;;;;;5041878;28;20518;-71
2021/06/24 04:11:57;;;;;;;13.50;9.15;;;;;;;;;;5055274;28;20028;-72
2021/06/24 04:14:22;;;;;;;20.80;10.43;;;;;;;;;;5055758;28;20033;-71
2021/06/24 04:16:48;;;;;;;15.73;9.50;;;;;;;;;;5055608;28;20040;-71
2021/06/24 04:19:14;;;;;;;16.83;9.13;;;;;;;;;;5055268;28;20098;-72
2021/06/24 04:21:39;;;;;;;16.73;9.48;;;;;;;;;;5054994;28;20044;-70
2021/06/24 04:24:05;;;;;;;22.08;9.10;;;;;;;;;;5045115;28;20147;-71
2021/06/24 04:26:30;;;;;;;16.08;8.98;;;;;;;;;;5035048;28;20029;-71
2021/06/24 04:28:56;;;;;;;19.58;9.50;;;;;;;;;;5034880;28;20032;-71
2021/06/24 04:31:21;;;;;;;22.65;9.43;;;;;;;;;;5034735;28;20017;-72
2021/06/24 04:33:47;;;;;;;18.00;9.70;;;;;;;;;;5036889;28;20025;-71
2021/06/24 04:36:12;;;;;;;17.83;8.93;;;;;;;;;;5036175;28;20120;-71
2021/06/24 04:38:37;;;;;;;19.15;9.77;;;;;;;;;;5035126;28;20029;-72
2021/06/24 04:41:03;;;;;;;18.35;9.02;;;;;;;;;;5035365;28;20083;-73
2021/06/24 04:43:29;;;;;;;13.60;9.50;;;;;;;;;;5034472;28;20025;-72
2021/06/24 04:45:54;;;;;;;16.05;9.73;;;;;;;;;;5035266;28;20033;-71
2021/06/24 04:48:20;;;;;;;16.20;10.57;;;;;;;;;;5035420;28;20056;-69
2021/06/24 04:50:46;;;;;;;20.85;9.65;;;;;;;;;;5054199;28;20115;-72
2021/06/24 04:53:11;;;;;;;18.02;9.82;;;;;;;;;;5054839;28;20384;-71
2021/06/24 04:55:40;;;;;;;20.38;9.70;;;;;;;;;;5054952;28;20108;-72
2021/06/24 04:58:09;;;;;;;17.77;9.90;;;;;;;;;;5054797;28;20040;-71
2021/06/24 05:00:35;;;;;;;16.30;9.82;;;;;;;;;;5054156;28;20103;-72
2021/06/24 05:03:02;;;;;;;19.98;9.32;;;;;;;;;;5054834;28;20481;-72
2021/06/24 05:05:27;;;;;;;21.02;9.95;;;;;;;;;;5053401;28;20029;-71
2021/06/24 05:07:53;;;;;;;19.25;10.02;;;;;;;;;;5053924;28;20044;-71
2021/06/24 05:10:18;;;;;;;23.55;9.73;;;;;;;;;;5054526;28;20029;-72
2021/06/24 05:12:44;;;;;;;16.13;9.30;;;;;;;;;;5038001;28;20034;-71
2021/06/24 05:15:10;;;;;;;21.38;9.70;;;;;;;;;;5037600;28;20120;-72
2021/06/24 05:17:38;;;;;;;19.48;9.15;;;;;;;;;;5038529;28;20036;-71
2021/06/24 05:20:05;;;;;;;18.50;9.55;;;;;;;;;;5045630;28;20033;-72
2021/06/24 05:22:31;;;;;;;16.05;8.32;;;;;;;;;;5058456;28;20114;-71
2021/06/24 05:24:58;;;;;;;19.27;9.52;;;;;;;;;;5051949;28;20516;-72
2021/06/24 05:27:23;;;;;;;16.63;9.25;;;;;;;;;;5046456;28;20030;-70
2021/06/24 05:29:48;;;;;;;14.75;9.20;;;;;;;;;;5052482;28;20113;-70
2021/06/24 05:32:14;;;;;;;21.10;9.32;;;;;;;;;;5055168;28;20040;-70
2021/06/24 05:34:39;;;;;;;13.73;9.00;;;;;;;;;;5052378;28;20037;-70
2021/06/24 05:37:04;;;;;;;25.65;9.30;;;;;;;;;;5037157;28;20029;-70
2021/06/24 05:39:30;;;;;;;20.42;9.23;;;;;;;;;;5038510;28;20029;-70
2021/06/24 05:41:57;;;;;;;17.80;8.68;;;;;;;;;;5036464;28;20033;-70
2021/06/24 05:44:24;;;;;;;20.08;10.00;;;;;;;;;;5037173;28;20029;-69
2021/06/24 05:46:49;;;;;;;14.30;9.07;;;;;;;;;;5046710;28;20033;-69
2021/06/24 05:49:15;;;;;;;19.00;8.82;;;;;;;;;;5036098;28;20156;-70
2021/06/24 05:51:40;;;;;;;15.60;8.63;;;;;;;;;;5036167;28;20112;-70
2021/06/24 05:54:05;;;;;;;12.88;8.18;;;;;;;;;;5036842;28;20033;-70
2021/06/24 05:56:31;;;;;;;20.48;8.85;;;;;;;;;;5048078;28;20107;-70
2021/06/24 05:58:57;;;;;;;16.27;8.55;;;;;;;;;;5053955;28;20404;-70
2021/06/24 06:01:22;;;;;;;14.77;7.60;;;;;;;;;;5038203;28;20037;-69
2021/06/24 06:03:47;;;;;;;12.77;8.27;;;;;;;;;;5037203;28;20087;-69
2021/06/24 06:06:13;;;;;;;16.95;7.68;;;;;;;;;;5051456;28;20025;-69
2021/06/24 06:08:38;;;;;;;16.48;8.05;;;;;;;;;;5053588;28;20056;-70
2021/06/24 06:11:04;;;;;;;16.48;7.95;;;;;;;;;;5055244;28;20115;-70
2021/06/24 06:13:29;;;;;;;14.55;7.13;;;;;;;;;;5054136;28;20033;-70
2021/06/24 06:15:55;;;;;;;10.73;8.10;;;;;;;;;;5052879;28;20131;-70
2021/06/24 06:18:24;;;;;;;16.13;8.20;;;;;;;;;;5054732;28;20033;-69
2021/06/24 06:20:49;;;;;;;15.63;7.10;;;;;;;;;;5054130;28;20021;-70
2021/06/24 06:23:18;;;;;;;14.38;8.05;;;;;;;;;;5042790;28;20026;-69
2021/06/24 06:25:44;;;;;;;15.98;6.45;;;;;;;;;;5035681;28;20140;-69
2021/06/24 06:28:10;;;;;;;18.85;7.97;;;;;;;;;;5035234;28;20040;-69
2021/06/24 06:30:35;;;;;;;12.45;7.47;;;;;;;;;;5035252;28;20037;-69
2021/06/24 06:33:01;;;;;;;13.77;7.72;;;;;;;;;;5035097;28;20029;-70
2021/06/24 06:35:27;;;;;;;9.25;7.00;;;;;;;;;;5043848;28;20167;-70
2021/06/24 06:37:53;;;;;;;10.38;7.07;;;;;;;;;;5043763;28;20062;-70
2021/06/24 06:40:18;;;;;;;16.88;7.60;;;;;;;;;;5055122;28;20042;-70
2021/06/24 06:42:43;;;;;;;15.10;6.93;;;;;;;;;;5039536;28;20025;-69
2021/06/24 06:45:10;;;;;;;13.60;6.55;;;;;;;;;;5052005;28;20035;-70
2021/06/24 06:47:35;;;;;;;14.50;6.70;;;;;;;;;;5054276;28;20030;-70
2021/06/24 06:50:01;;;;;;;15.35;6.78;;;;;;;;;;5040127;28;20481;-70
2021/06/24 06:52:26;;;;;;;17.58;6.35;;;;;;;;;;5034765;28;20029;-70
2021/06/24 06:54:51;;;;;;;9.50;6.10;;;;;;;;;;5049698;28;20033;-70
2021/06/24 06:57:17;;;;;;;13.73;5.80;;;;;;;;;;5052024;28;20169;-70
2021/06/24 06:59:42;;;;;;;10.18;5.82;;;;;;;;;;5054991;28;20392;-69
2021/06/24 07:02:08;;;;;;;14.82;6.22;;;;;;;;;;5054499;28;20098;-69
2021/06/24 07:04:34;;;;;;;19.58;6.15;;;;;;;;;;5054577;28;20093;-69
2021/06/24 07:06:59;;;;;;;9.52;5.53;;;;;;;;;;5054077;28;20493;-68
2021/06/24 07:09:24;;;;;;;9.13;5.40;;;;;;;;;;5041406;28;20029;-69
2021/06/24 07:11:50;;;;;;;11.35;5.40;;;;;;;;;;5054825;28;20048;-69
2021/06/24 07:14:15;;;;;;;10.73;5.10;;;;;;;;;;5054309;28;20017;-69
2021/06/24 07:16:40;;;;;;;14.88;5.68;;;;;;;;;;5053946;28;20063;-69
2021/06/24 07:19:06;;;;;;;9.95;5.40;;;;;;;;;;5054540;28;20024;-69
2021/06/24 07:21:31;;;;;;;11.45;5.32;;;;;;;;;;5053794;28;20505;-70
2021/06/24 07:23:56;;;;;;;12.35;6.63;;;;;;;;;;5035157;28;20079;-70
2021/06/24 07:26:22;;;;;;;11.48;6.05;;;;;;;;;;5035139;28;20045;-70
2021/06/24 07:28:47;;;;;;;13.88;6.18;;;;;;;;;;5034355;28;20041;-69
2021/06/24 07:31:12;;;;;;;12.75;5.85;;;;;;;;;;5034245;28;20021;-69
2021/06/24 07:33:38;;;;;;;10.45;5.97;;;;;;;;;;5049155;28;20021;-69
2021/06/24 07:36:03;;;;;;;12.73;5.53;;;;;;;;;;5038459;28;20037;-69
2021/06/24 07:38:29;;;;;;;10.10;4.95;;;;;;;;;;5052580;28;20017;-69
2021/06/24 07:40:55;;;;;;;9.50;5.10;;;;;;;;;;5050656;28;20455;-69
2021/06/24 07:43:20;;;;;;;19.20;5.80;;;;;;;;;;5053693;28;20064;-69
2021/06/24 07:45:46;;;;;;;10.95;5.60;;;;;;;;;;5052978;28;20090;-70
2021/06/24 07:48:11;;;;;;;11.23;5.65;;;;;;;;;;5053869;28;20029;-70
2021/06/24 07:50:37;;;;;;;11.02;5.60;;;;;;;;;;5051070;28;20511;-70
2021/06/24 07:53:04;;;;;;;10.55;5.70;;;;;;;;;;5033717;28;20021;-70
2021/06/24 07:55:33;;;;;;;14.70;5.40;;;;;;;;;;5033704;28;20033;-70
2021/06/24 07:58:02;;;;;;;16.25;5.28;;;;;;;;;;5033805;28;20167;-70
2021/06/24 08:00:28;;;;;;;15.07;6.05;;;;;;;;;;5033660;28;20120;-70
2021/06/24 08:02:53;;;;;;;18.27;5.13;;;;;;;;;;5033588;28;20053;-70
2021/06/24 08:05:19;;;;;;;12.40;6.00;;;;;;;;;;5038103;28;20021;-70
2021/06/24 08:07:47;;;;;;;12.60;5.22;;;;;;;;;;5053392;28;20041;-70
2021/06/24 08:10:13;;;;;;;9.20;5.82;;;;;;;;;;5052846;28;20481;-70
2021/06/24 08:12:40;;;;;;;10.50;4.97;;;;;;;;;;5053857;28;20028;-70
2021/06/24 08:15:07;;;;;;;6.93;4.63;;;;;;;;;;5053565;28;20104;-71
2021/06/24 08:17:32;;;;;;;12.27;5.70;;;;;;;;;;5052816;28;20109;-71
2021/06/24 08:19:57;;;;;;;9.43;5.32;;;;;;;;;;5045392;28;20457;-70
2021/06/24 08:22:24;;;;;;;13.50;5.70;;;;;;;;;;5033515;28;20021;-70
2021/06/24 08:24:49;;;;;;;12.52;5.90;;;;;;;;;;5034516;28;20033;-70
2021/06/24 08:27:14;;;;;;;7.45;4.93;;;;;;;;;;5033319;28;20465;-69
2021/06/24 08:29:39;;;;;;;6.80;5.00;;;;;;;;;;5033255;28;20045;-70
2021/06/24 08:32:05;;;;;;;15.63;7.65;;;;;;;;;;5033247;28;20064;-70
2021/06/24 08:34:32;;;;;;;9.68;5.70;;;;;;;;;;5047849;28;20555;-70
2021/06/24 08:36:58;;;;;;;25.33;8.60;;;;;;;;;;5033044;28;20087;-70
2021/06/24 08:39:23;;;;;;;14.60;5.78;;;;;;;;;;5033269;28;20034;-70
2021/06/24 08:41:51;;;;;;;10.25;5.97;;;;;;;;;;5033190;28;20489;-70
2021/06/24 08:44:17;;;;;;;8.98;4.90;;;;;;;;;;5033533;28;20048;-70
2021/06/24 08:46:43;;;;;;;9.30;5.75;;;;;;;;;;5052087;28;20508;-70
2021/06/24 08:49:09;;;;;;;8.32;5.38;;;;;;;;;;5035066;28;20033;-70
2021/06/24 08:51:35;;;;;;;12.05;5.43;;;;;;;;;;5044020;28;20027;-70
2021/06/24 08:54:01;;;;;;;13.32;5.70;;;;;;;;;;5038323;28;20035;-70
2021/06/24 08:56:27;;;;;;;11.57;5.10;;;;;;;;;;5036887;28;20037;-70
2021/06/24 08:58:53;;;;;;;9.20;5.28;;;;;;;;;;5037154;28;20037;-70
2021/06/24 09:01:19;;;;;;;11.75;5.38;;;;;;;;;;5037283;28;20095;-70
2021/06/24 09:03:46;;;;;;;8.75;5.50;;;;;;;;;;5053178;28;20033;-70
2021/06/24 09:06:11;;;;;;;13.65;5.57;;;;;;;;;;5048249;28;20029;-70
2021/06/24 09:08:52;;;;;;;12.32;5.38;;;;;;;;;;5036838;28;20068;-70
2021/06/24 09:11:25;;;;;;;12.13;5.43;;;;;;;;;;5036814;28;20057;-70
2021/06/24 09:14:16;;;;;;;8.65;5.57;;;;;;;;;;5037022;28;20382;-70
2021/06/24 09:16:44;;;;;;;9.70;6.45;;;;;;;;;;5036698;28;20092;-70
2021/06/24 09:19:21;;;;;;;12.57;6.38;;;;;;;;;;5036598;28;20033;-70
2021/06/24 09:21:54;;;;;;;15.55;6.85;;;;;;;;;;5055687;28;20064;-70
2021/06/24 09:24:24;;;;;;;12.50;6.32;;;;;;;;;;5054883;28;20025;-70
2021/06/24 09:26:50;;;;;;;14.02;7.10;;;;;;;;;;5055136;28;20128;-69
2021/06/24 09:29:17;;;;;;;11.60;6.22;;;;;;;;;;5049087;28;20477;-70
2021/06/24 09:31:47;;;;;;;16.60;6.80;;;;;;;;;;5036264;28;20489;-70
2021/06/24 09:34:13;;;;;;;13.90;7.05;;;;;;;;;;5036186;28;20025;-68
2021/06/24 09:36:41;;;;;;;11.55;6.80;;;;;;;;;;5055431;28;20113;-70
2021/06/24 09:39:24;;;;;;;9.65;6.90;;;;;;;;;;5036822;28;20076;-70
2021/06/24 09:42:03;;;;;;;12.43;7.00;;;;;;;;;;5036426;28;20474;-70
2021/06/24 09:44:29;;;;;;;13.27;7.50;;;;;;;;;;5049316;28;20036;-70
2021/06/24 09:46:56;;;;;;;12.93;6.53;;;;;;;;;;5054571;28;20082;-69
2021/06/24 09:49:29;;;;;;;16.77;6.85;;;;;;;;;;5056000;28;20024;-70
2021/06/24 09:51:57;;;;;;;10.52;7.10;;;;;;;;;;5056131;28;20104;-69
2021/06/24 09:54:34;;;;;;;13.82;7.15;;;;;;;;;;5055921;28;20063;-69
2021/06/24 09:56:59;;;;;;;13.55;7.40;;;;;;;;;;5054899;28;21064;-69
2021/06/24 09:59:39;;;;;;;10.20;6.80;;;;;;;;;;5036041;28;20082;-69
2021/06/24 10:02:10;;;;;;;13.23;6.85;;;;;;;;;;5035283;28;20045;-69
2021/06/24 10:04:39;;;;;;;10.52;6.15;;;;;;;;;;5035948;28;20021;-69
2021/06/24 10:07:08;;;;;;;11.43;6.78;;;;;;;;;;5035757;28;20025;-70
2021/06/24 10:09:33;;;;;;;14.23;7.75;;;;;;;;;;5047860;28;20033;-69
2021/06/24 10:11:59;;;;;;;12.43;7.25;;;;;;;;;;5049053;28;20041;-70
2021/06/24 10:14:26;;;;;;;11.82;6.93;;;;;;;;;;5035965;28;20026;-70
2021/06/24 10:16:53;;;;;;;9.85;6.70;;;;;;;;;;5036093;28;20045;-70
2021/06/24 10:19:24;;;;;;;12.80;6.72;;;;;;;;;;5035673;28;20393;-69
2021/06/24 10:21:52;;;;;;;13.75;7.03;;;;;;;;;;5035912;28;20029;-69
2021/06/24 10:24:21;;;;;;;15.75;7.50;;;;;;;;;;5034334;28;20025;-70
2021/06/24 10:26:52;;;;;;;10.38;6.38;;;;;;;;;;5041695;28;20040;-69
2021/06/24 10:29:20;;;;;;;11.70;6.30;;;;;;;;;;5035471;28;20030;-69
2021/06/24 10:31:51;;;;;;;11.90;7.38;;;;;;;;;;5035214;28;20037;-70
2021/06/24 10:34:17;;;;;;;10.23;7.07;;;;;;;;;;5051364;28;20021;-69
2021/06/24 10:37:10;;;;;;;9.48;6.80;;;;;;;;;;5035416;28;20037;-70
2021/06/24 10:39:36;;;;;;;14.88;7.20;;;;;;;;;;5035504;28;20060;-70
2021/06/24 10:42:09;;;;;;;11.88;7.20;;;;;;;;;;5051957;28;20060;-70
2021/06/24 10:44:50;;;;;;;10.45;7.32;;;;;;;;;;5045617;28;20091;-70
2021/06/24 10:47:30;;;;;;;14.60;7.72;;;;;;;;;;5034963;28;20031;-70
2021/06/24 10:50:45;;;;;;;10.13;7.15;;;;;;;;;;5035187;28;20075;-69
2021/06/24 10:53:10;;;;;;;13.68;7.85;;;;;;;;;;5050245;28;20374;-70
2021/06/24 10:55:40;;;;;;;13.23;7.07;;;;;;;;;;5043968;28;20054;-69
2021/06/24 10:58:11;;;;;;;9.73;6.97;;;;;;;;;;5034740;28;20032;-70
2021/06/24 11:00:49;;;;;;;11.55;7.30;;;;;;;;;;5034969;28;20029;-70
2021/06/24 11:03:18;;;;;;;19.77;8.48;;;;;;;;;;5034831;28;20430;-70
2021/06/24 11:05:48;;;;;;;12.10;7.57;;;;;;;;;;5034533;28;20064;-70
2021/06/24 11:08:16;;;;;;;10.98;7.50;;;;;;;;;;5033343;28;20025;-69
2021/06/24 11:11:08;;;;;;;13.40;9.35;;;;;;;;;;5051147;28;20477;-70
2021/06/24 11:13:39;;;;;;;11.32;8.00;;;;;;;;;;5053841;28;20099;-69
2021/06/24 11:16:13;;;;;;;15.90;8.37;;;;;;;;;;5054191;28;20025;-70
2021/06/24 11:18:44;;;;;;;12.38;7.78;;;;;;;;;;5054419;28;20131;-68
2021/06/24 11:21:14;;;;;;;12.45;7.53;;;;;;;;;;5054751;28;20033;-70
2021/06/24 11:23:49;;;;;;;11.50;7.90;;;;;;;;;;5048404;28;20025;-70
2021/06/24 11:26:29;;;;;;;19.45;7.32;;;;;;;;;;5034269;28;20433;-69
2021/06/24 11:28:59;;;;;;;9.93;6.18;;;;;;;;;;5034461;28;20338;-70
2021/06/24 11:36:53;;;;;;;13.25;7.13;;;;;;;;;;5033855;28;20482;-70
2021/06/24 11:39:23;;;;;;;11.55;7.60;;;;;;;;;;5037316;28;20029;-69
2021/06/24 11:41:59;;;;;;;9.20;7.25;;;;;;;;;;5033858;28;20021;-69
2021/06/24 11:44:32;;;;;;;14.38;7.60;;;;;;;;;;5034366;28;20385;-69
2021/06/24 11:47:06;;;;;;;19.35;7.78;;;;;;;;;;5033967;28;20102;-69
2021/06/24 12:04:14;;;;;;;8.73;7.20;;;;;;;;;;5033573;28;20025;-69
2021/06/24 12:06:40;;;;;;;10.50;7.45;;;;;;;;;;5033453;28;20025;-70
2021/06/24 12:09:05;;;;;;;9.43;7.60;;;;;;;;;;5033777;28;20049;-69
2021/06/24 12:11:36;;;;;;;13.52;7.90;;;;;;;;;;5033636;28;20075;-70
2021/06/24 12:14:39;;;;;;;10.18;7.22;;;;;;;;;;5049838;28;20028;-70
2021/06/24 12:17:13;;;;;;;12.05;6.90;;;;;;;;;;5050639;28;20155;-70
2021/06/24 12:19:41;;;;;;;13.60;7.40;;;;;;;;;;5036106;28;20077;-70
2021/06/24 12:22:07;;;;;;;10.10;6.50;;;;;;;;;;5034074;28;20401;-70
2021/06/24 12:24:33;;;;;;;12.50;6.80;;;;;;;;;;5032929;28;20028;-70
2021/06/24 12:27:20;;;;;;;10.35;6.70;;;;;;;;;;5038419;28;20110;-70
2021/06/24 12:29:47;;;;;;;9.65;6.72;;;;;;;;;;5053357;28;20032;-70
2021/06/24 12:32:15;;;;;;;8.00;6.40;;;;;;;;;;5052316;28;20124;-70
2021/06/24 12:34:42;;;;;;;10.00;6.20;;;;;;;;;;5053007;28;20420;-70
2021/06/24 12:37:07;;;;;;;11.60;6.45;;;;;;;;;;5033700;28;20104;-70
2021/06/24 12:39:33;;;;;;;12.75;6.85;;;;;;;;;;5033129;28;20033;-70
2021/06/24 12:42:02;;;;;;;14.15;7.18;;;;;;;;;;5034158;28;20029;-70
2021/06/24 12:44:28;;;;;;;11.07;6.45;;;;;;;;;;5051533;28;20432;-70
2021/06/24 12:46:53;;;;;;;10.48;5.97;;;;;;;;;;5052921;28;20037;-70
2021/06/24 12:49:18;;;;;;;9.63;5.28;;;;;;;;;;5053312;28;20390;-70
2021/06/24 12:51:44;;;;;;;11.82;6.38;;;;;;;;;;5049757;28;20057;-69
2021/06/24 12:54:15;;;;;;;11.52;6.22;;;;;;;;;;5052511;28;20032;-70
2021/06/24 12:56:44;;;;;;;14.35;6.20;;;;;;;;;;5052444;28;20036;-70
2021/06/24 12:59:09;;;;;;;7.55;5.20;;;;;;;;;;5041680;28;20160;-70
2021/06/24 13:01:39;;;;;;;14.70;5.35;;;;;;;;;;5033320;28;20057;-70
2021/06/24 13:04:16;;;;;;;9.43;5.70;;;;;;;;;;5033128;28;20061;-71
2021/06/24 13:06:43;;;;;;;9.35;5.40;;;;;;;;;;5032837;28;20033;-70
2021/06/24 13:09:12;;;;;;;9.70;6.15;;;;;;;;;;5032749;28;20037;-70
2021/06/24 13:11:39;;;;;;;8.48;5.30;;;;;;;;;;5033305;28;20032;-70
2021/06/24 13:14:16;;;;;;;8.43;5.97;;;;;;;;;;5048605;28;20112;-70
2021/06/24 13:16:47;;;;;;;10.88;6.15;;;;;;;;;;5052018;28;20392;-68
2021/06/24 13:19:26;;;;;;;11.00;6.50;;;;;;;;;;5046879;28;20021;-69
2021/06/24 13:22:13;;;;;;;8.82;6.32;;;;;;;;;;5052858;28;20099;-68
2021/06/24 13:24:41;;;;;;;11.68;6.75;;;;;;;;;;5052993;28;20052;-68
2021/06/24 13:27:16;;;;;;;9.25;6.43;;;;;;;;;;5052233;28;20029;-70
2021/06/24 13:29:55;;;;;;;15.35;6.68;;;;;;;;;;5053100;28;20155;-68
2021/06/24 13:32:31;;;;;;;12.48;5.95;;;;;;;;;;5033118;28;20518;-69
2021/06/24 13:35:18;;;;;;;10.63;6.63;;;;;;;;;;5033985;28;20116;-69
2021/06/24 13:37:54;;;;;;;13.05;8.10;;;;;;;;;;5036484;28;20017;-68
2021/06/24 13:40:28;;;;;;;10.45;7.53;;;;;;;;;;5036507;28;20029;-68
2021/06/24 13:43:00;;;;;;;14.57;7.28;;;;;;;;;;5045496;28;20496;-68
2021/06/24 13:45:25;;;;;;;8.75;6.20;;;;;;;;;;5047833;28;20079;-70
2021/06/24 13:47:50;;;;;;;11.73;7.15;;;;;;;;;;5046637;28;20137;-69
2021/06/24 13:50:16;;;;;;;10.07;7.13;;;;;;;;;;5055743;28;20036;-69
2021/06/24 13:52:41;;;;;;;10.15;6.70;;;;;;;;;;5052688;28;20436;-69
2021/06/24 13:55:07;;;;;;;10.77;7.00;;;;;;;;;;5055515;28;20024;-68
2021/06/24 13:57:33;;;;;;;8.90;6.00;;;;;;;;;;5055081;28;20542;-69
2021/06/24 13:59:58;;;;;;;10.45;7.72;;;;;;;;;;5046103;28;20041;-69
2021/06/24 14:02:24;;;;;;;11.50;6.10;;;;;;;;;;5036218;28;20060;-69
2021/06/24 14:04:49;;;;;;;7.90;6.22;;;;;;;;;;5035978;28;20018;-69
2021/06/24 14:07:15;;;;;;;7.75;5.95;;;;;;;;;;5035614;28;20025;-69
2021/06/24 14:09:41;;;;;;;8.32;5.80;;;;;;;;;;5035824;28;20045;-69
2021/06/24 14:12:07;;;;;;;10.98;5.97;;;;;;;;;;5035650;28;20101;-69
2021/06/24 14:14:32;;;;;;;8.63;6.07;;;;;;;;;;5047056;28;20025;-69
2021/06/24 14:16:58;;;;;;;8.57;5.90;;;;;;;;;;5055456;28;20036;-69
2021/06/24 14:19:27;;;;;;;8.48;5.70;;;;;;;;;;5048752;28;20029;-68
2021/06/24 14:21:55;;;;;;;8.00;6.13;;;;;;;;;;5035634;28;20029;-68
2021/06/24 14:24:21;;;;;;;10.95;6.22;;;;;;;;;;5035617;28;20033;-68
2021/06/24 14:26:46;;;;;;;12.10;6.28;;;;;;;;;;5035236;28;20048;-67
2021/06/24 14:29:13;;;;;;;9.57;5.97;;;;;;;;;;5035426;28;20390;-67
2021/06/24 14:31:39;;;;;;;11.50;6.28;;;;;;;;;;5036427;28;20034;-67
2021/06/24 14:34:04;;;;;;;7.88;6.47;;;;;;;;;;5043321;28;20366;-67
2021/06/24 14:36:30;;;;;;;9.00;5.97;;;;;;;;;;5054612;28;20196;-67
2021/06/24 14:38:55;;;;;;;8.77;6.18;;;;;;;;;;5053497;28;20056;-67
2021/06/24 14:41:21;;;;;;;12.15;7.05;;;;;;;;;;5056539;28;20082;-68
2021/06/24 14:43:46;;;;;;;18.40;7.40;;;;;;;;;;5050100;28;20044;-68
2021/06/24 14:46:12;;;;;;;8.40;6.65;;;;;;;;;;5034880;28;20101;-68
2021/06/24 14:48:38;;;;;;;12.30;7.05;;;;;;;;;;5035205;28;20026;-67
2021/06/24 14:51:06;;;;;;;14.23;7.45;;;;;;;;;;5035202;28;20025;-68
2021/06/24 14:53:31;;;;;;;14.23;8.13;;;;;;;;;;5064999;28;20052;-68